Time;durP1;ratioP1;P1;durP2;ratioP2;P2;SDS_P1;SDS_P2;PMS_P1;PMS_P2;Temp;Humidity;BMP_temperature;BMP_pressure;BME280_temperature;BME280_humidity;BME280_pressure;Samples;Min_cycle;Max_cycle;Signal;HPM_P1;HPM_P2
2024/02/17 00:00:00;;;;;;;81.78;36.45;;;102.90;2227.20;;;;;;5088584;28;20162;-74
2024/02/17 00:02:26;;;;;;;74.63;35.47;;;103.30;2227.20;;;;;;5083412;28;20082;-73
2024/02/17 00:04:52;;;;;;;85.75;39.00;;;102.90;2227.20;;;;;;5076973;28;20078;-72
2024/02/17 00:07:17;;;;;;;98.70;44.08;;;103.00;2227.20;;;;;;5066338;28;20563;-73
2024/02/17 00:09:44;;;;;;;134.40;56.38;;;103.00;2227.20;;;;;;5084548;28;20786;-72
2024/02/17 00:12:10;;;;;;;137.65;56.05;;;103.00;2227.20;;;;;;5083536;28;20070;-74
2024/02/17 00:14:36;;;;;;;129.48;55.53;;;103.00;2227.20;;;;;;5079103;28;20060;-73
2024/02/17 00:17:02;;;;;;;113.75;50.38;;;103.00;2227.20;;;;;;5072966;28;20058;-74
2024/02/17 00:19:29;;;;;;;97.75;44.30;;;103.00;2227.20;;;;;;5083871;28;20020;-72
2024/02/17 00:21:54;;;;;;;86.25;40.28;;;102.90;2227.20;;;;;;5071501;28;20032;-73
2024/02/17 00:24:20;;;;;;;82.10;38.95;;;102.90;2227.20;;;;;;5077468;28;20034;-73
2024/02/17 00:26:46;;;;;;;73.05;36.25;;;102.80;2227.20;;;;;;5086943;28;20024;-73
2024/02/17 00:29:12;;;;;;;70.15;34.40;;;102.90;2227.20;;;;;;5085254;28;20418;-73
2024/02/17 00:31:37;;;;;;;65.13;31.58;;;102.70;2227.20;;;;;;5076962;28;20076;-74
2024/02/17 00:34:04;;;;;;;61.50;28.20;;;102.70;2227.20;;;;;;5073691;28;20396;-73
2024/02/17 00:36:30;;;;;;;54.55;27.60;;;102.70;2227.20;;;;;;5094546;28;20020;-73
2024/02/17 00:38:55;;;;;;;48.63;24.45;;;102.70;2227.20;;;;;;5091550;28;20048;-72
2024/02/17 00:41:21;;;;;;;49.13;24.17;;;102.70;2227.20;;;;;;5087348;28;20051;-73
2024/02/17 00:43:46;;;;;;;46.38;23.42;;;102.60;2227.20;;;;;;5080601;28;20044;-73
2024/02/17 00:46:12;;;;;;;43.75;22.45;;;102.60;2227.20;;;;;;5079632;28;20030;-73
2024/02/17 00:48:38;;;;;;;41.33;21.48;;;102.60;2227.20;;;;;;5082587;28;20036;-73
2024/02/17 00:51:04;;;;;;;45.15;23.58;;;;;;;;;;5079026;28;20035;-73
2024/02/17 00:53:30;;;;;;;48.42;22.98;;;;;;;;;;5069362;28;20801;-73
2024/02/17 00:55:56;;;;;;;50.88;25.33;;;;;;;;;;5086926;28;20047;-73
2024/02/17 00:58:22;;;;;;;54.60;26.45;;;;;;;;;;5088441;28;20460;-73
2024/02/17 01:00:48;;;;;;;59.13;28.40;;;;;;;;;;5067460;28;20066;-73
2024/02/17 01:03:14;;;;;;;60.17;27.65;;;;;;;;;;5088502;28;20029;-73
2024/02/17 01:05:42;;;;;;;70.18;29.15;;;;;;;;;;5087928;28;20031;-74
2024/02/17 01:08:08;;;;;;;64.50;28.88;;;;;;;;;;5092253;28;20024;-73
2024/02/17 01:10:34;;;;;;;58.05;27.13;;;;;;;;;;5093911;28;20081;-74
2024/02/17 01:13:01;;;;;;;62.17;28.38;;;;;;;;;;5080470;28;20119;-73
2024/02/17 01:15:28;;;;;;;63.42;28.42;;;;;;;;;;5091687;28;20059;-74
2024/02/17 01:17:54;;;;;;;59.75;27.77;;;;;;;;;;5084540;28;20024;-73
2024/02/17 01:20:20;;;;;;;55.00;26.92;;;;;;;;;;5087090;28;20024;-73
2024/02/17 01:22:46;;;;;;;55.72;27.08;;;;;;;;;;5092782;28;20024;-73
2024/02/17 01:25:13;;;;;;;54.08;27.23;;;;;;;;;;5092125;28;20031;-73
2024/02/17 01:27:39;;;;;;;62.72;29.60;;;;;;;;;;5091520;28;20394;-74
2024/02/17 01:30:06;;;;;;;76.30;33.45;;;;;;;;;;5091148;28;20482;-74
2024/02/17 01:32:32;;;;;;;94.63;37.70;;;;;;;;;;5091162;28;20052;-73
2024/02/17 01:34:58;;;;;;;100.85;39.55;;;;;;;;;;5091298;28;20352;-73
2024/02/17 01:37:24;;;;;;;114.97;43.25;;;;;;;;;;5083006;28;20028;-73
2024/02/17 01:39:50;;;;;;;131.60;49.03;;;;;;;;;;5091796;28;20035;-72
2024/02/17 01:42:16;;;;;;;132.40;48.40;;;;;;;;;;5090485;28;20085;-72
2024/02/17 01:44:42;;;;;;;132.95;48.58;;;;;;;;;;5090830;28;20471;-73
2024/02/17 01:47:09;;;;;;;136.23;49.00;;;;;;;;;;5091394;28;20063;-73
2024/02/17 01:49:35;;;;;;;148.95;52.25;;;;;;;;;;5088872;28;20020;-73
2024/02/17 01:52:02;;;;;;;143.52;52.40;;;;;;;;;;5069950;28;20039;-73
2024/02/17 01:54:29;;;;;;;128.70;49.17;;;;;;;;;;5091379;28;20019;-74
2024/02/17 01:56:56;;;;;;;119.35;45.10;;;;;;;;;;5092535;28;20406;-73
2024/02/17 01:59:22;;;;;;;111.60;43.58;;;;;;;;;;5091373;28;20028;-73
2024/02/17 02:01:49;;;;;;;111.32;42.78;;;;;;;;;;5092454;28;20028;-74
2024/02/17 02:04:15;;;;;;;97.82;40.25;;;;;;;;;;5091809;28;20035;-74
2024/02/17 02:06:41;;;;;;;82.30;36.13;;;;;;;;;;5090585;28;20039;-73
2024/02/17 02:09:07;;;;;;;85.53;35.33;;;;;;;;;;5085008;28;20035;-73
2024/02/17 02:11:34;;;;;;;81.68;34.25;;;;;;;;;;5093022;28;20250;-73
2024/02/17 02:14:15;;;;;;;71.32;31.67;;;;;;;;;;5092266;28;20077;-74
2024/02/17 02:16:42;;;;;;;67.00;28.83;;;;;;;;;;5091144;28;20016;-73
2024/02/17 02:19:08;;;;;;;57.35;26.08;;;;;;;;;;5090546;28;20148;-73
2024/02/17 02:21:40;;;;;;;51.85;23.58;;;;;;;;;;5090435;28;20035;-73
2024/02/17 02:24:06;;;;;;;52.95;24.30;;;;;;;;;;5088931;28;20383;-73
2024/02/17 02:26:32;;;;;;;48.92;23.60;;;;;;;;;;5082991;28;20035;-73
2024/02/17 02:28:59;;;;;;;54.17;24.88;;;;;;;;;;5083329;28;20489;-74
2024/02/17 02:31:25;;;;;;;51.45;23.98;;;;;;;;;;5089332;28;20364;-74
2024/02/17 02:33:51;;;;;;;53.03;25.38;;;;;;;;;;5087755;28;20467;-74
2024/02/17 02:36:18;;;;;;;54.10;25.33;;;;;;;;;;5090275;28;20036;-73
2024/02/17 02:38:45;;;;;;;51.70;25.17;;;;;;;;;;5090345;28;20513;-74
2024/02/17 02:41:11;;;;;;;52.45;25.17;;;;;;;;;;5090873;28;20028;-73
2024/02/17 02:43:37;;;;;;;46.28;23.85;;;77.70;2227.20;;;;;;5090061;28;20051;-73
2024/02/17 02:46:03;;;;;;;51.92;25.52;;;77.50;2227.20;;;;;;5084092;28;20383;-72
2024/02/17 02:48:29;;;;;;;56.53;26.35;;;77.30;2227.20;;;;;;5083818;28;20036;-73
2024/02/17 02:50:55;;;;;;;60.78;28.95;;;77.30;2227.20;;;;;;5086215;28;20031;-74
2024/02/17 02:53:20;;;;;;;63.80;30.17;;;77.30;2227.20;;;;;;5088017;28;20058;-74
2024/02/17 02:55:47;;;;;;;57.65;27.30;;;;;;;;;;5072014;28;20051;-73
2024/02/17 02:58:13;;;;;;;53.45;26.73;;;;;;;;;;5071305;28;20487;-74
2024/02/17 03:00:39;;;;;;;59.47;28.45;;;;;;;;;;5071302;28;20024;-73
2024/02/17 03:03:05;;;;;;;56.42;27.20;;;;;;;;;;5091596;28;20106;-74
2024/02/17 03:05:31;;;;;;;58.40;27.23;;;;;;;;;;5081858;28;20145;-74
2024/02/17 03:07:57;;;;;;;53.28;26.95;;;;;;;;;;5090143;28;20513;-74
2024/02/17 03:10:23;;;;;;;51.75;25.95;;;;;;;;;;5091338;28;20020;-74
2024/02/17 03:12:50;;;;;;;55.83;26.77;;;;;;;;;;5089423;28;20389;-73
2024/02/17 03:15:16;;;;;;;56.17;26.33;;;;;;;;;;5090381;28;20063;-74
2024/02/17 03:17:42;;;;;;;55.05;26.58;;;;;;;;;;5091291;28;20031;-74
2024/02/17 03:20:08;;;;;;;54.22;27.38;;;;;;;;;;5090260;28;20028;-74
2024/02/17 03:22:34;;;;;;;53.22;26.77;;;;;;;;;;5087995;28;20045;-74
2024/02/17 03:25:00;;;;;;;59.47;27.85;;;;;;;;;;5082553;28;20111;-74
2024/02/17 03:27:27;;;;;;;50.08;25.42;;;77.10;2227.20;;;;;;5090537;28;20538;-74
2024/02/17 03:29:53;;;;;;;48.97;23.65;;;76.90;2227.20;;;;;;5091313;28;20107;-75
2024/02/17 03:32:19;;;;;;;48.33;23.15;;;76.80;2227.20;;;;;;5090681;28;20126;-75
2024/02/17 03:34:45;;;;;;;44.17;21.85;;;52.00;2227.20;;;;;;5078648;28;20037;-75
2024/02/17 03:37:11;;;;;;;46.05;23.42;;;52.00;2227.20;;;;;;5082076;28;20032;-74
2024/02/17 03:39:37;;;;;;;44.80;23.05;;;51.90;2227.20;;;;;;5090018;28;20031;-74
2024/02/17 03:42:03;;;;;;;43.20;22.58;;;51.90;2227.20;;;;;;5086306;28;20103;-74
2024/02/17 03:44:29;;;;;;;42.10;22.70;;;51.90;2227.20;;;;;;5082846;28;20031;-74
2024/02/17 03:46:55;;;;;;;42.58;21.73;;;51.90;2227.20;;;;;;5090090;28;20024;-74
2024/02/17 03:49:20;;;;;;;43.50;21.10;;;51.80;2227.20;;;;;;5084439;28;20035;-74
2024/02/17 03:51:50;;;;;;;38.50;19.98;;;51.80;2227.20;;;;;;5090857;28;20031;-74
2024/02/17 03:54:17;;;;;;;42.42;20.65;;;51.80;2227.20;;;;;;5090658;28;20027;-74
2024/02/17 03:56:42;;;;;;;43.67;21.48;;;51.70;2227.20;;;;;;5090271;28;20510;-74
2024/02/17 03:59:25;;;;;;;43.83;20.67;;;51.90;2227.20;;;;;;5108542;27;20401;-73
2024/02/17 04:01:55;;;;;;;43.92;21.02;;;;;;;;;;5089830;28;20754;-73
2024/02/17 04:04:22;;;;;;;45.05;20.88;;;;;;;;;;5083707;28;20113;-72
2024/02/17 04:06:48;;;;;;;40.00;20.35;;;;;;;;;;5087178;28;20056;-73
2024/02/17 04:09:14;;;;;;;40.38;20.42;;;;;;;;;;5102900;28;20033;-73
2024/02/17 04:11:40;;;;;;;42.03;21.48;;;;;;;;;;5087432;28;20024;-73
2024/02/17 04:14:06;;;;;;;42.13;20.15;;;52.10;2227.20;;;;;;5087076;28;20031;-73
2024/02/17 04:16:32;;;;;;;39.58;21.15;;;51.90;2227.20;;;;;;5098267;28;20024;-73
2024/02/17 04:18:57;;;;;;;39.08;19.98;;;51.80;2227.20;;;;;;5098677;28;20056;-73
2024/02/17 04:21:23;;;;;;;39.83;20.17;;;51.70;2227.20;;;;;;5084731;28;20059;-73
2024/02/17 04:23:49;;;;;;;40.80;20.42;;;51.70;2227.20;;;;;;5092094;28;20020;-73
2024/02/17 04:26:15;;;;;;;43.83;21.35;;;51.60;2227.20;;;;;;5106665;28;20060;-72
2024/02/17 04:28:40;;;;;;;40.28;20.17;;;51.60;2227.20;;;;;;5108010;28;20412;-73
2024/02/17 04:31:07;;;;;;;42.88;19.98;;;51.60;2227.20;;;;;;5105622;28;20027;-73
2024/02/17 04:33:34;;;;;;;43.67;21.33;;;51.60;2227.20;;;;;;5106295;28;20034;-73
2024/02/17 04:36:00;;;;;;;49.15;21.58;;;51.50;2227.20;;;;;;5105782;28;20026;-72
2024/02/17 04:38:26;;;;;;;41.63;21.02;;;51.60;2227.20;;;;;;5098051;28;20024;-73
2024/02/17 04:40:52;;;;;;;43.22;20.50;;;51.50;2227.20;;;;;;5102364;28;20078;-72
2024/02/17 04:43:18;;;;;;;42.92;21.42;;;51.50;2227.20;;;;;;5107088;28;20024;-73
2024/02/17 04:45:43;;;;;;;42.03;21.75;;;51.40;2227.20;;;;;;5105174;28;20532;-73
2024/02/17 04:48:09;;;;;;;44.20;21.75;;;51.30;2227.20;;;;;;5106601;28;20126;-73
2024/02/17 04:50:35;;;;;;;44.83;22.13;;;;;;;;;;5106350;28;20028;-72
2024/02/17 04:53:01;;;;;;;41.30;21.85;;;;;;;;;;5089322;28;20031;-73
2024/02/17 04:55:27;;;;;;;39.10;20.73;;;;;;;;;;5096885;28;20141;-73
2024/02/17 04:57:53;;;;;;;41.20;20.77;;;;;;;;;;5101956;28;20078;-72
2024/02/17 05:00:20;;;;;;;43.83;21.65;;;;;;;;;;5101934;28;20062;-73
2024/02/17 05:02:46;;;;;;;43.92;21.90;;;51.60;2227.20;;;;;;5086161;28;20020;-73
2024/02/17 05:05:16;;;;;;;45.10;21.45;;;51.30;2227.20;;;;;;5085578;28;20020;-73
2024/02/17 05:07:42;;;;;;;43.63;23.13;;;51.20;2227.20;;;;;;5086640;28;20131;-73
2024/02/17 05:10:08;;;;;;;82.40;40.65;;;51.20;2227.20;;;;;;5086380;28;20028;-73
2024/02/17 05:12:34;;;;;;;78.40;38.97;;;51.20;2227.20;;;;;;5075198;28;20086;-74
2024/02/17 05:15:01;;;;;;;55.45;28.52;;;51.20;2227.20;;;;;;5068421;28;20035;-73
2024/02/17 05:17:27;;;;;;;53.45;25.58;;;51.20;2227.20;;;;;;5072482;28;20021;-72
2024/02/17 05:19:53;;;;;;;44.28;23.20;;;51.20;2227.20;;;;;;5081262;28;20076;-73
2024/02/17 05:22:18;;;;;;;47.60;24.42;;;51.30;2227.20;;;;;;5075977;28;20027;-73
2024/02/17 05:24:44;;;;;;;52.10;25.95;;;51.20;2227.20;;;;;;5093460;28;20056;-73
2024/02/17 05:27:10;;;;;;;60.83;28.10;;;51.20;2227.20;;;;;;5092708;28;20032;-73
2024/02/17 05:29:38;;;;;;;82.03;33.42;;;51.20;2227.20;;;;;;5092439;28;20455;-73
2024/02/17 05:32:05;;;;;;;97.18;39.28;;;51.20;2227.20;;;;;;5091887;28;20028;-73
2024/02/17 05:34:31;;;;;;;105.22;42.50;;;51.20;2227.20;;;;;;5092402;28;20037;-73
2024/02/17 05:36:57;;;;;;;120.68;46.58;;;51.20;2227.20;;;;;;5092049;28;20103;-72
2024/02/17 05:39:23;;;;;;;125.75;47.45;;;51.40;2227.20;;;;;;5092800;28;20032;-73
2024/02/17 05:41:50;;;;;;;131.45;48.65;;;51.20;2227.20;;;;;;5083275;28;20483;-72
2024/02/17 05:44:15;;;;;;;122.97;46.60;;;51.30;2227.20;;;;;;5067966;28;20064;-73
2024/02/17 05:46:41;;;;;;;119.55;46.00;;;51.20;2227.20;;;;;;5073883;28;20056;-73
2024/02/17 05:49:07;;;;;;;92.30;40.65;;;51.20;2227.20;;;;;;5092502;28;20039;-73
2024/02/17 05:51:32;;;;;;;92.47;38.70;;;26.50;2201.60;;;;;;5090980;28;20095;-73
2024/02/17 05:53:58;;;;;;;77.82;35.75;;;51.20;2227.20;;;;;;5092660;28;20016;-73
2024/02/17 05:56:24;;;;;;;81.05;35.42;;;51.20;2227.20;;;;;;5090262;28;20032;-74
2024/02/17 05:58:50;;;;;;;72.80;33.88;;;51.20;2227.20;;;;;;5090641;28;20372;-73
2024/02/17 06:01:16;;;;;;;69.93;31.77;;;;;;;;;;5083030;28;20029;-72
2024/02/17 06:03:42;;;;;;;65.03;28.35;;;;;;;;;;5070328;28;20029;-72
2024/02/17 06:06:08;;;;;;;63.47;29.05;;;153.80;2252.80;;;;;;5083260;28;20027;-72
2024/02/17 06:08:33;;;;;;;57.03;28.05;;;154.40;2252.80;;;;;;5088877;28;20046;-72
2024/02/17 06:10:59;;;;;;;52.60;25.80;;;180.10;2252.80;;;;;;5066495;28;20380;-72
2024/02/17 06:13:25;;;;;;;54.30;25.88;;;205.40;2252.80;;;;;;5071671;28;20056;-72
2024/02/17 06:15:50;;;;;;;44.75;23.00;;;231.00;2252.80;;;;;;5080743;28;20020;-72
2024/02/17 06:21:10;;;;;;;39.55;20.88;;;;;;;;;;5090468;28;20073;-74
2024/02/17 06:23:36;;;;;;;39.55;20.17;;;333.20;1920.00;;;;;;5091438;28;20028;-75
2024/02/17 06:26:02;;;;;;;33.13;19.40;;;333.30;1868.80;;;;;;5080586;28;20108;-74
2024/02/17 06:28:28;;;;;;;34.65;19.02;;;358.60;1766.40;;;;;;5067743;28;20570;-74
2024/02/17 06:30:53;;;;;;;33.63;18.92;;;384.10;1689.60;;;;;;5091261;28;20307;-74
2024/02/17 06:33:20;;;;;;;34.85;18.98;;;384.80;1638.40;;;;;;5092272;28;20081;-74
2024/02/17 06:35:46;;;;;;;31.77;18.45;;;;;;;;;;5091033;28;20543;-73
2024/02/17 06:38:15;;;;;;;34.78;19.90;;;;;;;;;;5091986;28;20133;-73
2024/02/17 06:40:41;;;;;;;32.65;18.90;;;461.00;1510.40;;;;;;5090474;28;20020;-74
2024/02/17 06:43:07;;;;;;;31.95;19.77;;;461.00;1843.20;;;;;;5087143;28;20060;-74
2024/02/17 06:45:34;;;;;;;35.95;20.35;;;461.50;1408.00;;;;;;5063841;28;20028;-73
2024/02/17 06:48:00;;;;;;;34.67;18.45;;;486.90;1433.60;;;;;;5078200;28;20531;-74
2024/02/17 06:50:26;;;;;;;36.05;20.90;;;487.00;1280.00;;;;;;5091762;28;20103;-74
2024/02/17 06:52:52;;;;;;;35.10;21.60;;;;;;;;;;5087778;28;20013;-73
2024/02/17 06:55:21;;;;;;;37.72;22.20;;;;;;;;;;5075186;28;20382;-73
2024/02/17 06:57:46;;;;;;;36.47;21.05;;;537.90;1228.80;;;;;;5090805;28;20064;-74
2024/02/17 07:00:12;;;;;;;36.63;19.83;;;538.10;1203.20;;;;;;5090473;28;20066;-73
2024/02/17 07:02:38;;;;;;;29.08;18.30;;;563.60;1203.20;;;;;;5090692;28;20136;-73
2024/02/17 07:05:04;;;;;;;33.10;19.60;;;588.90;1152.00;;;;;;5089417;28;20064;-73
2024/02/17 07:07:30;;;;;;;31.92;19.35;;;614.90;1075.20;;;;;;5090574;28;20040;-74
2024/02/17 07:09:59;;;;;;;29.42;19.65;;;615.00;1049.60;;;;;;5090491;28;20026;-73
2024/02/17 07:12:25;;;;;;;30.98;19.40;;;615.30;1049.60;;;;;;5090991;28;20028;-73
2024/02/17 07:14:50;;;;;;;31.50;19.52;;;640.30;998.40;;;;;;5090948;28;20082;-73
2024/02/17 07:17:16;;;;;;;33.00;19.98;;;640.50;998.40;;;;;;5084547;28;20036;-73
2024/02/17 07:19:42;;;;;;;31.58;20.00;;;640.80;972.80;;;;;;5072049;28;20064;-72
2024/02/17 07:22:08;;;;;;;34.05;21.08;;;665.80;972.80;;;;;;5091306;28;20391;-72
2024/02/17 07:24:34;;;;;;;31.00;21.52;;;666.20;947.20;;;;;;5090255;28;20030;-73
2024/02/17 07:27:00;;;;;;;38.08;23.95;;;666.50;947.20;;;;;;5087354;28;20031;-72
2024/02/17 07:29:25;;;;;;;43.33;23.88;;;691.40;972.80;;;;;;5064707;28;20029;-72
2024/02/17 07:31:51;;;;;;;45.88;26.10;;;691.80;921.60;;;;;;5068501;28;20024;-73
2024/02/17 07:34:17;;;;;;;42.63;26.60;;;692.10;870.40;;;;;;5064651;28;20402;-73
2024/02/17 07:36:42;;;;;;;37.50;24.08;;;692.10;921.60;;;;;;5070972;28;20033;-73
2024/02/17 07:39:08;;;;;;;35.67;22.50;;;692.10;947.20;;;;;;5050564;28;20025;-72
2024/02/17 07:41:34;;;;;;;34.72;21.80;;;717.10;972.80;;;;;;5050345;28;20564;-72
2024/02/17 07:43:59;;;;;;;34.03;20.60;;;692.00;947.20;;;;;;5050296;28;20342;-72
2024/02/17 07:46:26;;;;;;;31.77;21.48;;;716.80;972.80;;;;;;5077144;28;20024;-72
2024/02/17 07:48:51;;;;;;;31.42;21.38;;;692.00;921.60;;;;;;5088779;28;20044;-72
2024/02/17 07:51:17;;;;;;;32.15;21.30;;;691.20;947.20;;;;;;5089819;28;20036;-72
2024/02/17 07:53:43;;;;;;;32.67;20.83;;;640.80;972.80;;;;;;5088521;28;20123;-72
2024/02/17 07:56:10;;;;;;;31.63;21.10;;;615.00;1024.00;;;;;;5077784;28;20103;-73
2024/02/17 07:58:36;;;;;;;33.53;20.55;;;589.40;1049.60;;;;;;5089942;28;20092;-71
2024/02/17 08:01:02;;;;;;;32.50;21.30;;;564.00;1075.20;;;;;;5068596;28;20576;-72
2024/02/17 08:03:27;;;;;;;29.90;19.30;;;538.40;1126.40;;;;;;5070246;28;20480;-72
2024/02/17 08:05:54;;;;;;;33.72;22.45;;;538.40;1152.00;;;;;;5078165;28;20023;-72
2024/02/17 08:08:20;;;;;;;50.90;31.13;;;563.80;1177.60;;;;;;5090111;28;20063;-72
2024/02/17 08:10:46;;;;;;;37.47;22.52;;;589.60;1100.80;;;;;;5084319;28;20121;-72
2024/02/17 08:13:12;;;;;;;63.13;35.88;;;615.30;998.40;;;;;;5060315;28;20033;-72
2024/02/17 08:15:38;;;;;;;36.63;23.70;;;640.90;947.20;;;;;;5075045;28;20059;-72
2024/02/17 08:18:05;;;;;;;78.30;41.40;;;665.80;972.80;;;;;;5087832;28;20080;-72
2024/02/17 08:20:31;;;;;;;73.20;38.65;;;640.30;947.20;;;;;;5089572;28;20060;-72
2024/02/17 08:22:57;;;;;;;39.17;23.80;;;614.90;998.40;;;;;;5090016;28;20489;-72
2024/02/17 08:25:24;;;;;;;38.85;23.08;;;615.20;998.40;;;;;;5088775;28;20474;-71
2024/02/17 08:27:49;;;;;;;44.42;26.20;;;640.10;998.40;;;;;;5088617;28;20040;-72
2024/02/17 08:30:15;;;;;;;45.83;30.00;;;640.40;947.20;;;;;;5089777;28;20613;-71
2024/02/17 08:32:41;;;;;;;48.63;30.73;;;640.10;972.80;;;;;;5089438;28;20420;-72
2024/02/17 08:35:07;;;;;;;45.75;29.30;;;615.00;998.40;;;;;;5089211;28;21708;-72
2024/02/17 08:37:32;;;;;;;47.95;30.40;;;615.00;1024.00;;;;;;5088900;28;20027;-72
2024/02/17 08:39:58;;;;;;;46.85;29.90;;;615.20;998.40;;;;;;5089368;28;20032;-72
2024/02/17 08:42:24;;;;;;;47.83;30.40;;;615.10;998.40;;;;;;5088863;28;20024;-72
2024/02/17 08:44:53;;;;;;;47.45;31.77;;;614.90;1024.00;;;;;;5087729;28;20039;-72
2024/02/17 08:47:21;;;;;;;54.53;34.92;;;589.60;1049.60;;;;;;5067955;28;20031;-72
2024/02/17 08:49:47;;;;;;;57.20;36.60;;;588.80;1075.20;;;;;;5093524;28;20467;-72
2024/02/17 08:52:12;;;;;;;177.50;90.32;;;563.90;1126.40;;;;;;5092657;28;20017;-72
2024/02/17 08:54:38;;;;;;;82.35;45.35;;;538.00;1203.20;;;;;;5082522;28;20025;-72
2024/02/17 08:57:04;;;;;;;63.22;39.38;;;563.20;1203.20;;;;;;5059189;28;20036;-72
2024/02/17 08:59:31;;;;;;;59.30;37.35;;;563.20;1203.20;;;;;;5070668;28;20079;-72
2024/02/17 09:01:57;;;;;;;57.38;36.13;;;538.30;1152.00;;;;;;5072315;28;20031;-72
2024/02/17 09:04:22;;;;;;;70.45;42.78;;;537.80;1177.60;;;;;;5087683;28;20028;-73
2024/02/17 09:06:48;;;;;;;49.33;31.10;;;512.30;1203.20;;;;;;5092697;28;20361;-73
2024/02/17 09:09:14;;;;;;;36.35;23.83;;;512.20;1203.20;;;;;;5092932;28;20039;-72
2024/02/17 09:11:40;;;;;;;39.17;24.20;;;512.10;1203.20;;;;;;5092753;28;20368;-72
2024/02/17 09:14:05;;;;;;;37.17;23.85;;;487.30;1203.20;;;;;;5093118;28;20043;-72
2024/02/17 09:16:31;;;;;;;35.13;22.30;;;487.20;1203.20;;;;;;5061836;28;20029;-72
2024/02/17 09:18:57;;;;;;;243.82;68.85;;;;;;;;;;5052454;28;20021;-73
2024/02/17 09:21:23;;;;;;;28.88;19.05;;;487.20;1254.40;;;;;;5052457;28;20029;-73
2024/02/17 09:23:49;;;;;;;30.45;18.25;;;487.30;1228.80;;;;;;5084737;28;20498;-74
2024/02/17 09:26:14;;;;;;;29.55;18.30;;;487.20;1228.80;;;;;;5091791;28;20812;-74
2024/02/17 09:28:40;;;;;;;43.70;24.25;;;487.10;1254.40;;;;;;5093030;28;20043;-73
2024/02/17 09:31:06;;;;;;;35.22;20.50;;;487.00;1254.40;;;;;;5091236;28;20032;-73
2024/02/17 09:33:31;;;;;;;25.90;17.58;;;512.20;1254.40;;;;;;5070626;28;20035;-73
2024/02/17 09:35:57;;;;;;;28.08;17.85;;;486.80;1280.00;;;;;;5070100;28;20030;-74
2024/02/17 09:38:23;;;;;;;25.67;18.33;;;486.80;1280.00;;;;;;5088322;28;20140;-74
2024/02/17 09:40:51;;;;;;;28.13;18.02;;;486.70;1280.00;;;;;;5090586;28;20035;-72
2024/02/17 09:43:18;;;;;;;26.15;18.15;;;486.90;1254.40;;;;;;5091706;28;20118;-73
2024/02/17 09:45:43;;;;;;;28.90;18.67;;;487.20;1280.00;;;;;;5092882;28;20024;-73
2024/02/17 09:48:11;;;;;;;25.48;16.25;;;512.00;1254.40;;;;;;5092126;28;20024;-73
2024/02/17 09:50:38;;;;;;;23.90;15.70;;;512.30;1254.40;;;;;;5073644;28;20369;-73
2024/02/17 09:53:06;;;;;;;24.90;16.33;;;512.70;1228.80;;;;;;5081374;28;20034;-73
2024/02/17 09:55:35;;;;;;;24.58;16.10;;;537.70;1254.40;;;;;;5090456;28;20509;-73
2024/02/17 09:58:02;;;;;;;47.45;25.77;;;538.00;1203.20;;;;;;5063674;28;20469;-73
2024/02/17 10:00:28;;;;;;;23.67;15.90;;;538.00;1228.80;;;;;;5082805;28;20027;-73
2024/02/17 10:02:54;;;;;;;23.83;15.52;;;538.30;1177.60;;;;;;5088661;28;20411;-73
2024/02/17 10:05:27;;;;;;;24.70;15.02;;;537.90;1177.60;;;;;;5066434;28;20139;-73
2024/02/17 10:07:53;;;;;;;24.67;15.00;;;512.80;1177.60;;;;;;5074743;28;20040;-72
2024/02/17 10:10:21;;;;;;;20.80;13.80;;;512.90;1177.60;;;;;;5071546;28;20028;-73
2024/02/17 10:12:50;;;;;;;23.83;15.30;;;538.10;1177.60;;;;;;5067739;28;20036;-73
2024/02/17 10:15:16;;;;;;;21.05;13.70;;;538.50;1203.20;;;;;;5071074;28;20103;-73
2024/02/17 10:17:42;;;;;;;22.60;15.63;;;563.50;1177.60;;;;;;5076197;28;20024;-74
2024/02/17 10:20:12;;;;;;;23.25;14.55;;;563.70;1177.60;;;;;;5090962;28;20028;-73
2024/02/17 10:22:39;;;;;;;20.05;14.25;;;563.50;1203.20;;;;;;5089717;28;20032;-73
2024/02/17 10:25:06;;;;;;;24.70;14.70;;;563.90;1152.00;;;;;;5078265;28;20021;-73
2024/02/17 10:27:32;;;;;;;20.00;14.65;;;563.90;1152.00;;;;;;5076915;28;20043;-72
2024/02/17 10:30:11;;;;;;;22.00;14.82;;;564.00;1152.00;;;;;;5080121;28;20040;-73
2024/02/17 10:32:38;;;;;;;19.55;14.00;;;564.00;1152.00;;;;;;5068626;28;20031;-72
2024/02/17 10:35:06;;;;;;;20.17;13.07;;;563.80;1152.00;;;;;;5058801;28;20486;-73
2024/02/17 10:37:34;;;;;;;18.55;12.95;;;563.60;1152.00;;;;;;5089349;28;20200;-72
2024/02/17 10:40:01;;;;;;;21.60;13.40;;;563.70;1126.40;;;;;;5080424;28;20028;-74
2024/02/17 10:42:27;;;;;;;20.83;14.43;;;537.70;1177.60;;;;;;5077930;28;20107;-73
2024/02/17 10:44:55;;;;;;;20.08;14.10;;;538.10;1203.20;;;;;;5067910;28;20029;-73
2024/02/17 10:47:28;;;;;;;18.73;13.32;;;563.20;1203.20;;;;;;5062024;28;20021;-73
2024/02/17 10:50:08;;;;;;;28.52;18.05;;;563.70;1177.60;;;;;;5067065;28;20708;-73
2024/02/17 10:52:45;;;;;;;36.00;21.17;;;564.00;1152.00;;;;;;5061777;28;20021;-74
2024/02/17 10:55:13;;;;;;;20.50;14.27;;;563.50;1177.60;;;;;;5065805;28;20024;-73
2024/02/17 10:57:56;;;;;;;21.63;14.23;;;564.00;1152.00;;;;;;5063853;28;20041;-73
2024/02/17 11:00:23;;;;;;;21.05;13.75;;;589.00;1126.40;;;;;;5083986;28;20072;-72
2024/02/17 11:02:54;;;;;;;20.77;14.10;;;589.00;1126.40;;;;;;5067694;28;20494;-73
2024/02/17 11:05:21;;;;;;;22.33;14.38;;;563.40;1152.00;;;;;;5074584;28;20032;-73
2024/02/17 11:07:47;;;;;;;21.73;14.90;;;563.80;1177.60;;;;;;5074858;28;20062;-73
2024/02/17 11:10:14;;;;;;;21.48;14.75;;;563.80;1177.60;;;;;;5070653;28;20028;-74
2024/02/17 11:12:47;;;;;;;22.83;15.85;;;563.90;1152.00;;;;;;5066824;28;20024;-73
2024/02/17 11:15:13;;;;;;;22.48;15.63;;;564.00;1152.00;;;;;;5069848;28;20025;-73
2024/02/17 11:17:44;;;;;;;20.40;14.90;;;564.10;1152.00;;;;;;5068704;28;20054;-72
2024/02/17 11:20:12;;;;;;;20.65;15.15;;;564.10;1152.00;;;;;;5060646;28;20103;-73
2024/02/17 11:22:41;;;;;;;20.92;13.80;;;589.00;1126.40;;;;;;5067899;28;20025;-73
2024/02/17 11:25:07;;;;;;;19.80;13.98;;;589.60;1100.80;;;;;;5066080;28;20103;-74
2024/02/17 11:27:34;;;;;;;23.05;14.90;;;589.30;1100.80;;;;;;5070047;28;20070;-73
2024/02/17 11:30:01;;;;;;;20.38;14.13;;;589.60;1100.80;;;;;;5058748;28;20133;-73
2024/02/17 11:32:28;;;;;;;26.20;17.42;;;614.60;1075.20;;;;;;5056925;28;20087;-73
2024/02/17 11:34:55;;;;;;;19.23;13.05;;;589.60;1075.20;;;;;;5064900;28;20390;-72
2024/02/17 11:37:22;;;;;;;26.63;17.00;;;589.30;1075.20;;;;;;5066215;28;20036;-72
2024/02/17 11:39:50;;;;;;;18.13;11.90;;;589.20;1075.20;;;;;;5065261;28;20040;-72
2024/02/17 11:42:20;;;;;;;20.10;13.43;;;589.70;1075.20;;;;;;5062671;28;20048;-72
2024/02/17 11:44:46;;;;;;;19.17;13.40;;;589.60;1049.60;;;;;;5062833;28;20620;-73
2024/02/17 11:47:13;;;;;;;21.05;15.23;;;588.90;1100.80;;;;;;5065445;28;20047;-73
2024/02/17 11:49:39;;;;;;;15.98;12.00;;;588.90;1100.80;;;;;;5067013;28;20031;-74
2024/02/17 11:52:05;;;;;;;17.98;11.65;;;589.30;1100.80;;;;;;5064495;28;20041;-73
2024/02/17 11:54:31;;;;;;;14.60;10.25;;;589.10;1075.20;;;;;;5067016;28;20029;-72
2024/02/17 11:56:57;;;;;;;15.45;8.75;;;589.10;1075.20;;;;;;5065523;28;20037;-73
2024/02/17 11:59:23;;;;;;;15.27;9.25;;;564.10;1049.60;;;;;;5066856;28;20051;-72
2024/02/17 12:01:50;;;;;;;13.40;9.50;;;589.20;1075.20;;;;;;5065920;28;20029;-73
2024/02/17 12:04:16;;;;;;;17.85;9.65;;;614.40;1049.60;;;;;;5066907;28;20032;-73
2024/02/17 12:06:42;;;;;;;13.65;9.38;;;614.50;1024.00;;;;;;5067365;28;20044;-74
2024/02/17 12:09:08;;;;;;;13.05;9.60;;;589.40;1049.60;;;;;;5065048;28;20029;-74
2024/02/17 12:11:35;;;;;;;13.63;9.43;;;614.40;1024.00;;;;;;5056917;28;20041;-74
2024/02/17 12:14:01;;;;;;;16.95;10.57;;;614.40;1024.00;;;;;;5064851;28;20021;-73
2024/02/17 12:16:27;;;;;;;13.30;9.00;;;589.60;1049.60;;;;;;5063586;28;20024;-73
2024/02/17 12:18:58;;;;;;;14.48;9.73;;;589.20;1049.60;;;;;;5062126;28;20039;-72
2024/02/17 12:21:25;;;;;;;13.85;8.65;;;589.40;1049.60;;;;;;5065508;28;20049;-74
2024/02/17 12:23:52;;;;;;;14.13;9.82;;;589.30;1049.60;;;;;;5066492;28;20605;-73
2024/02/17 12:26:20;;;;;;;14.38;9.95;;;589.50;1049.60;;;;;;5061373;28;20036;-74
2024/02/17 12:28:46;;;;;;;15.63;10.65;;;614.60;1024.00;;;;;;5053723;28;20045;-73
2024/02/17 12:31:12;;;;;;;14.75;9.60;;;614.90;1024.00;;;;;;5053809;28;20024;-74